Time;durP1;ratioP1;P1;durP2;ratioP2;P2;SDS_P1;SDS_P2;PMS_P1;PMS_P2;Temp;Humidity;BMP_temperature;BMP_pressure;BME280_temperature;BME280_humidity;BME280_pressure;Samples;Min_cycle;Max_cycle;Signal;HPM_P1;HPM_P2
2022/04/09 00:02:00;;;;;;;7.45;1.70;;;;;;;3.65;73.05;100315.72;4976228;28;20066;-79
2022/04/09 00:04:26;;;;;;;12.25;1.92;;;;;;;3.61;73.15;100326.88;4978635;28;20061;-78
2022/04/09 00:06:51;;;;;;;8.48;1.77;;;;;;;3.58;73.65;100326.91;4976846;28;21352;-79
2022/04/09 00:09:16;;;;;;;12.53;1.73;;;;;;;3.56;73.42;100326.06;4978427;28;20034;-78
2022/04/09 00:11:42;;;;;;;8.43;1.73;;;;;;;3.54;73.82;100341.50;4979903;28;20492;-78
2022/04/09 00:14:07;;;;;;;9.43;1.90;;;;;;;3.54;73.71;100338.91;4975449;28;20030;-79
2022/04/09 00:16:32;;;;;;;5.63;1.83;;;;;;;3.53;73.58;100351.81;4976772;28;20050;-79
2022/04/09 00:18:58;;;;;;;11.02;1.80;;;;;;;3.54;73.92;100351.78;4978629;28;20026;-79
2022/04/09 00:21:23;;;;;;;10.88;2.00;;;;;;;3.58;73.90;100365.50;4982892;28;20042;-79
2022/04/09 00:23:49;;;;;;;8.05;1.65;;;;;;;3.56;73.62;100359.50;4958836;28;20033;-78
2022/04/09 00:26:14;;;;;;;12.48;1.80;;;;;;;3.54;73.99;100371.53;4977099;28;20026;-79
2022/04/09 00:28:39;;;;;;;10.70;1.65;;;;;;;3.52;74.14;100371.50;4975953;28;20093;-78
2022/04/09 00:31:04;;;;;;;9.52;1.77;;;;;;;3.49;73.94;100367.25;4976056;28;20031;-78
2022/04/09 00:33:30;;;;;;;10.52;2.00;;;;;;;3.48;74.18;100385.25;4975269;28;20392;-79
2022/04/09 00:35:55;;;;;;;9.82;1.90;;;;;;;3.46;74.04;100384.41;4976080;28;20019;-78
2022/04/09 00:38:21;;;;;;;5.45;1.92;;;;;;;3.41;73.95;100387.00;4982532;28;20077;-78
2022/04/09 00:40:47;;;;;;;10.57;1.80;;;;;;;3.41;73.99;100383.56;4977347;28;20035;-79
2022/04/09 00:43:12;;;;;;;10.73;2.00;;;;;;;3.42;73.88;100388.69;4974835;28;20046;-79
2022/04/09 00:45:37;;;;;;;6.20;1.58;;;;;;;3.42;74.28;100401.53;4975784;28;20035;-79
2022/04/09 00:48:06;;;;;;;9.07;1.90;;;;;;;3.43;74.08;100400.69;4979139;28;20023;-79
2022/04/09 00:50:32;;;;;;;7.33;1.50;;;;;;;3.43;74.04;100403.25;4978935;28;20031;-79
2022/04/09 00:52:59;;;;;;;7.60;1.42;;;;;;;3.42;74.05;100401.53;4975772;28;20101;-78
2022/04/09 00:58:15;;;;;;;9.73;1.67;;;;;;;3.38;74.12;100412.72;4974850;28;20113;-79
2022/04/09 01:00:41;;;;;;;8.57;1.67;;;;;;;3.41;73.74;100423.00;4978570;28;20035;-79
2022/04/09 01:03:09;;;;;;;7.60;1.50;;;;;;;3.41;73.89;100424.69;4977693;28;20418;-79
2022/04/09 01:05:35;;;;;;;14.47;1.97;;;;;;;3.42;73.37;100424.69;4974495;28;20386;-79
2022/04/09 01:08:03;;;;;;;10.57;2.10;;;;;;;3.41;73.49;100427.28;4974617;28;20027;-79
2022/04/09 01:10:29;;;;;;;9.20;1.60;;;;;;;3.40;73.59;100434.16;4974350;28;20085;-79
2022/04/09 01:12:54;;;;;;;8.33;1.97;;;;;;;3.44;72.79;100433.25;4975669;28;20473;-78
2022/04/09 01:15:19;;;;;;;7.95;1.35;;;;;;;3.43;73.17;100441.81;4974411;28;20034;-78
2022/04/09 01:17:45;;;;;;;9.70;1.77;;;;;;;3.42;72.95;100444.41;4973303;28;20039;-78
2022/04/09 01:20:14;;;;;;;8.23;1.60;;;;;;;3.47;72.63;100446.09;4974813;28;20039;-78
2022/04/09 01:22:40;;;;;;;8.40;1.70;;;;;;;3.43;72.77;100449.53;4974206;28;20109;-78
2022/04/09 01:25:05;;;;;;;8.70;1.57;;;;;;;3.42;72.90;100452.97;4975664;28;20130;-78
2022/04/09 01:27:30;;;;;;;6.93;1.30;;;;;;;3.38;73.08;100458.13;4975707;28;20045;-78
2022/04/09 01:29:56;;;;;;;11.53;1.70;;;;;;;3.38;73.79;100456.44;4976172;28;20034;-79
2022/04/09 01:32:21;;;;;;;7.90;1.73;;;;;;;3.36;73.76;100458.16;4973403;28;20038;-79
2022/04/09 01:34:46;;;;;;;8.30;1.97;;;;;;;3.36;73.40;100462.41;4976531;28;20069;-78
2022/04/09 01:37:11;;;;;;;8.97;1.50;;;;;;;3.32;73.57;100471.88;4979148;28;20031;-78
2022/04/09 01:39:37;;;;;;;8.30;1.57;;;;;;;3.31;73.58;100477.88;4961587;28;20039;-78
2022/04/09 01:42:02;;;;;;;7.00;1.57;;;;;;;3.29;73.72;100487.28;4977572;28;20036;-78
2022/04/09 01:44:27;;;;;;;8.47;1.30;;;;;;;3.27;73.52;100484.72;4986387;28;20096;-78
2022/04/09 01:46:53;;;;;;;5.33;1.20;;;;;;;3.26;73.83;100492.44;4983046;28;20114;-78
2022/04/09 01:49:18;;;;;;;8.93;1.67;;;;;;;3.24;73.80;100494.19;4976558;28;20041;-78
2022/04/09 01:51:47;;;;;;;8.77;1.47;;;;;;;3.23;73.99;100498.44;4977969;28;20473;-78
2022/04/09 01:54:13;;;;;;;5.90;1.30;;;;;;;3.18;73.95;100503.59;4974312;28;20470;-78
2022/04/09 01:56:39;;;;;;;9.00;1.70;;;;;;;3.17;74.26;100509.59;4982453;28;20029;-78
2022/04/09 01:59:04;;;;;;;6.57;1.40;;;;;;;3.16;74.15;100518.16;4977165;28;20039;-78
2022/04/09 02:01:30;;;;;;;12.18;1.70;;;;;;;3.14;74.04;100517.31;4975009;28;20154;-78
2022/04/09 02:03:55;;;;;;;11.63;1.67;;;;;;;3.14;74.06;100525.00;4982805;28;20023;-78
2022/04/09 02:06:20;;;;;;;10.23;1.30;;;;;;;3.12;73.98;100526.72;4974337;28;20062;-78
2022/04/09 02:08:45;;;;;;;11.10;1.47;;;;;;;3.10;74.06;100531.00;4977291;28;20498;-78
2022/04/09 02:11:11;;;;;;;9.47;1.60;;;;;;;3.12;73.93;100531.03;4979787;28;20034;-78
2022/04/09 02:13:36;;;;;;;8.07;1.63;;;;;;;3.09;73.73;100536.16;4989518;28;20042;-78
2022/04/09 02:16:01;;;;;;;5.57;1.38;;;;;;;3.08;73.99;100535.28;4977784;28;20050;-78
2022/04/09 02:18:27;;;;;;;8.50;1.57;;;;;;;3.07;74.00;100543.88;4983469;28;20037;-78
2022/04/09 02:20:53;;;;;;;12.70;1.50;;;;;;;3.05;74.02;100543.00;4981249;28;20039;-78
2022/04/09 02:23:18;;;;;;;9.07;1.60;;;;;;;3.04;73.98;100554.16;4980237;28;20027;-78
2022/04/09 02:25:43;;;;;;;11.57;1.80;;;;;;;3.02;74.04;100555.84;4982179;28;20054;-78
2022/04/09 02:28:09;;;;;;;10.50;1.60;;;;;;;3.00;73.83;100558.41;4978883;28;20034;-78
2022/04/09 02:30:34;;;;;;;9.23;1.40;;;;;;;3.00;74.12;100565.28;4980719;28;20077;-78
2022/04/09 02:32:59;;;;;;;9.37;1.57;;;;;;;2.98;73.80;100569.56;4977866;28;20070;-78
2022/04/09 02:35:26;;;;;;;6.90;1.23;;;;;;;2.96;74.07;100572.13;4978861;28;20405;-78
2022/04/09 02:37:52;;;;;;;6.27;1.60;;;;;;;2.95;74.23;100569.53;4980516;28;20458;-78
2022/04/09 02:40:17;;;;;;;8.57;1.30;;;;;;;2.96;74.25;100576.41;4989416;28;20034;-78
2022/04/09 02:42:43;;;;;;;4.87;1.30;;;;;;;2.95;74.24;100584.97;4980508;28;20053;-78
2022/04/09 02:45:11;;;;;;;8.50;1.40;;;;;;;2.94;74.42;100588.38;4981021;28;20034;-78
2022/04/09 02:47:37;;;;;;;7.25;1.20;;;;;;;2.94;73.96;100589.25;4980546;28;20034;-78
2022/04/09 02:50:04;;;;;;;8.57;1.30;;;;;;;2.96;74.09;100599.53;4980542;28;20038;-78
2022/04/09 02:52:37;;;;;;;10.55;1.60;;;;;;;2.96;73.73;100599.53;4980671;28;20105;-78
2022/04/09 02:55:05;;;;;;;9.70;1.90;;;;;;;2.93;73.92;100602.09;4979670;28;20049;-78
2022/04/09 02:57:31;;;;;;;9.90;1.30;;;;;;;2.93;74.16;100610.66;4978164;28;20373;-78
2022/04/09 02:59:56;;;;;;;6.35;1.27;;;;;;;2.95;73.81;100613.22;4986160;28;20537;-78
2022/04/09 03:02:21;;;;;;;5.13;1.27;;;;;;;2.98;74.24;100615.81;4982188;28;20473;-78
2022/04/09 03:04:47;;;;;;;8.27;1.58;;;;;;;3.03;73.62;100614.97;4981211;28;20768;-78
2022/04/09 03:07:12;;;;;;;9.73;1.37;;;;;;;2.99;73.71;100620.09;4979935;28;20027;-79
2022/04/09 03:09:38;;;;;;;4.60;1.23;;;;;;;3.00;73.61;100624.38;4979080;28;20417;-78
2022/04/09 03:12:04;;;;;;;5.90;1.27;;;;;;;3.02;73.46;100628.66;4980998;28;20038;-78
2022/04/09 03:14:29;;;;;;;7.80;1.30;;;;;;;3.03;73.29;100626.97;4976290;28;20117;-78
2022/04/09 03:16:55;;;;;;;7.37;1.80;;;;;;;3.02;73.50;100627.81;4978934;28;20147;-78
2022/04/09 03:19:20;;;;;;;5.23;1.40;;;;;;;3.01;73.29;100637.22;4959042;28;20042;-78
2022/04/09 03:21:45;;;;;;;6.97;1.13;;;;;;;3.02;73.26;100645.81;4978060;28;20042;-78
2022/04/09 03:24:10;;;;;;;10.70;1.67;;;;;;;3.00;73.25;100648.34;4976412;28;20041;-78
2022/04/09 03:26:36;;;;;;;9.02;1.30;;;;;;;3.01;73.05;100651.81;4976585;28;20026;-78
2022/04/09 03:29:01;;;;;;;8.15;1.40;;;;;;;2.99;73.07;100656.91;4977101;28;20041;-78
2022/04/09 03:31:27;;;;;;;6.15;1.20;;;;;;;3.00;72.98;100660.38;4977993;28;20027;-78
2022/04/09 03:33:53;;;;;;;6.40;1.23;;;;;;;2.95;72.91;100662.06;4976918;28;20526;-78
2022/04/09 03:36:19;;;;;;;5.47;1.13;;;;;;;2.93;73.24;100669.78;4977201;28;20145;-78
2022/04/09 03:38:44;;;;;;;7.50;1.13;;;;;;;2.89;73.33;100668.03;4977698;28;20033;-78
2022/04/09 03:41:09;;;;;;;6.27;0.93;;;;;;;2.86;73.02;100671.47;4977301;28;20485;-78
2022/04/09 03:43:34;;;;;;;5.97;1.17;;;;;;;2.86;73.29;100665.44;4976057;28;20051;-78
2022/04/09 03:46:01;;;;;;;5.50;1.20;;;;;;;2.86;73.42;100673.16;4977557;28;20065;-78
2022/04/09 03:48:27;;;;;;;7.33;1.20;;;;;;;2.87;73.46;100665.47;4979970;28;20032;-78
2022/04/09 03:50:52;;;;;;;5.50;1.10;;;;;;;2.88;73.52;100672.34;4981624;28;20034;-78
2022/04/09 03:53:20;;;;;;;7.27;1.10;;;;;;;2.92;73.30;100677.47;4975547;28;20082;-78
2022/04/09 03:55:49;;;;;;;6.83;1.20;;;;;;;2.94;73.31;100675.75;4976906;28;20034;-78
2022/04/09 03:58:15;;;;;;;6.10;1.00;;;;;;;2.95;73.30;100685.19;4975501;28;20022;-78
2022/04/09 04:00:41;;;;;;;4.63;1.20;;;;;;;2.94;73.24;100683.47;4977123;28;20061;-78
2022/04/09 04:03:07;;;;;;;6.50;1.10;;;;;;;2.94;73.32;100691.16;4977472;28;20059;-78
2022/04/09 04:05:33;;;;;;;4.73;1.20;;;;;;;2.94;73.04;100692.03;4975529;28;20421;-78
2022/04/09 04:07:58;;;;;;;4.87;1.17;;;;;;;2.93;73.70;100689.44;4975786;28;20435;-78
2022/04/09 04:10:23;;;;;;;5.57;1.10;;;;;;;2.92;73.22;100692.88;4977116;28;20496;-78
2022/04/09 04:12:49;;;;;;;4.60;1.20;;;;;;;2.88;73.30;100703.16;4978868;28;20031;-78
2022/04/09 04:15:15;;;;;;;5.87;1.27;;;;;;;2.87;73.29;100706.59;4980439;28;20039;-78
2022/04/09 04:17:41;;;;;;;9.33;1.53;;;;;;;2.85;73.58;100710.84;4978637;28;20043;-78
2022/04/09 04:20:08;;;;;;;12.23;1.23;;;;;;;2.82;73.55;100721.13;4974284;28;20382;-78
2022/04/09 04:22:33;;;;;;;9.03;1.17;;;;;;;2.80;73.87;100712.53;4976245;28;20066;-78
2022/04/09 04:24:59;;;;;;;5.87;1.03;;;;;;;2.79;73.50;100721.09;4956747;28;20055;-78
2022/04/09 04:27:24;;;;;;;9.93;1.30;;;;;;;2.77;73.87;100720.22;4975324;28;20034;-78
2022/04/09 04:29:49;;;;;;;10.73;1.37;;;;;;;2.74;73.66;100722.78;4976916;28;20073;-78
2022/04/09 04:32:15;;;;;;;7.57;1.60;;;;;;;2.71;73.76;100728.78;4988803;28;20026;-78
2022/04/09 04:34:40;;;;;;;6.73;1.40;;;;;;;2.70;73.56;100731.34;4975765;28;20076;-78
2022/04/09 04:37:05;;;;;;;7.27;1.23;;;;;;;2.66;73.75;100727.88;4975940;28;20366;-78
2022/04/09 04:39:30;;;;;;;5.50;1.20;;;;;;;2.64;73.65;100733.88;4977184;28;20157;-78
2022/04/09 04:41:56;;;;;;;8.03;1.40;;;;;;;2.62;73.89;100740.69;4975131;28;20050;-78
2022/04/09 04:44:21;;;;;;;7.27;1.40;;;;;;;2.57;73.81;100738.97;4976838;28;20030;-78
2022/04/09 04:46:46;;;;;;;8.50;1.97;;;;;;;2.57;73.98;100738.13;4974810;28;20088;-78
2022/04/09 04:49:12;;;;;;;9.23;1.60;;;;;;;2.57;73.67;100753.53;4987258;28;20386;-78
2022/04/09 04:51:37;;;;;;;6.53;1.40;;;;;;;2.54;74.15;100745.78;4958334;28;20041;-78
2022/04/09 04:54:03;;;;;;;5.93;1.40;;;;;;;2.53;73.67;100755.22;4974468;28;20073;-78
2022/04/09 04:56:29;;;;;;;7.37;1.47;;;;;;;2.54;74.30;100762.09;4974520;28;20019;-78
2022/04/09 04:58:54;;;;;;;6.03;1.33;;;;;;;2.52;74.10;100756.06;4974776;28;20162;-78
2022/04/09 05:01:20;;;;;;;9.33;1.23;;;;;;;2.51;74.34;100768.88;4975633;28;20497;-78
2022/04/09 05:03:45;;;;;;;8.73;2.40;;;;;;;2.51;74.18;100769.75;4956452;28;20035;-78
2022/04/09 05:06:11;;;;;;;8.80;1.30;;;;;;;2.48;74.36;100769.75;4956551;28;20049;-78
2022/04/09 05:08:38;;;;;;;5.63;1.40;;;;;;;2.48;74.37;100784.25;4976827;28;20026;-78
2022/04/09 05:11:04;;;;;;;9.33;1.50;;;;;;;2.46;74.43;100786.84;4978432;28;20023;-79
2022/04/09 05:13:29;;;;;;;8.03;1.50;;;;;;;2.46;74.64;100778.28;4976876;28;20057;-78
2022/04/09 05:15:54;;;;;;;8.57;1.70;;;;;;;2.45;74.44;100779.97;4975951;28;20112;-78
2022/04/09 05:18:19;;;;;;;5.93;2.10;;;;;;;2.44;74.57;100791.09;4975683;28;20477;-79
2022/04/09 05:20:45;;;;;;;4.10;1.13;;;;;;;2.45;74.60;100797.97;4973742;28;20031;-78
2022/04/09 05:23:10;;;;;;;13.60;1.43;;;;;;;2.46;74.54;100802.25;4977239;28;20030;-78
2022/04/09 05:25:36;;;;;;;9.33;1.47;;;;;;;2.46;74.92;100809.94;4976203;28;20034;-78
2022/04/09 05:28:04;;;;;;;8.40;2.30;;;;;;;2.49;74.41;100821.94;4976062;28;20030;-78
2022/04/09 05:30:29;;;;;;;7.83;1.40;;;;;;;2.49;74.52;100817.69;4974094;28;20109;-78
2022/04/09 05:32:54;;;;;;;6.60;1.83;;;;;;;2.52;74.20;100819.41;4978438;28;20206;-78
2022/04/09 05:35:20;;;;;;;7.87;1.40;;;;;;;2.53;74.66;100824.56;4976641;28;20174;-78
2022/04/09 05:37:46;;;;;;;9.20;1.73;;;;;;;2.58;74.39;100832.28;4955747;28;20034;-78
2022/04/09 05:40:12;;;;;;;9.77;1.67;;;;;;;2.62;74.45;100828.03;4975048;28;20031;-78
2022/04/09 05:42:38;;;;;;;5.90;1.37;;;;;;;2.64;74.39;100834.91;4980713;28;20093;-78
2022/04/09 05:45:03;;;;;;;5.27;1.50;;;;;;;2.68;74.61;100835.78;4980836;28;20362;-78
2022/04/09 05:47:29;;;;;;;11.30;1.80;;;;;;;2.71;74.45;100846.09;4963567;28;20026;-78
2022/04/09 05:49:57;;;;;;;4.80;1.53;;;;;;;2.75;74.12;100844.41;4984071;28;20473;-78
2022/04/09 05:52:22;;;;;;;5.77;1.43;;;;;;;2.78;73.99;100852.97;4972212;28;20685;-78
2022/04/09 05:54:48;;;;;;;5.57;1.47;;;;;;;2.81;74.24;100855.56;4982449;28;20034;-78
2022/04/09 05:57:14;;;;;;;7.70;1.70;;;;;;;2.82;74.21;100865.00;4980112;28;20027;-78
2022/04/09 05:59:39;;;;;;;8.50;1.87;;;;;;;2.84;74.17;100865.88;4963572;28;20076;-78
2022/04/09 06:02:06;;;;;;;7.13;1.50;;;;;;;2.86;73.82;100864.16;4981703;28;20233;-78
2022/04/09 06:04:31;;;;;;;6.80;1.40;;;;;;;2.87;73.94;100870.16;4981900;28;20114;-78
2022/04/09 06:06:56;;;;;;;6.33;2.03;;;;;;;2.87;73.93;100878.75;4981577;28;20537;-78
2022/04/09 06:09:22;;;;;;;6.33;1.47;;;;;;;2.88;73.74;100889.88;4979384;28;20037;-78
2022/04/09 06:11:47;;;;;;;7.80;1.57;;;;;;;2.87;73.82;100889.03;4983489;28;20041;-78
2022/04/09 06:14:13;;;;;;;6.30;1.37;;;;;;;2.87;73.82;100883.88;4983699;28;20105;-78
2022/04/09 06:16:40;;;;;;;9.13;1.60;;;;;;;2.93;74.04;100895.03;4980099;28;20474;-78
2022/04/09 06:19:06;;;;;;;5.97;1.50;;;;;;;2.99;73.97;100895.06;4983275;28;20129;-78
2022/04/09 06:21:33;;;;;;;8.67;2.00;;;;;;;3.07;73.99;100895.13;4980754;28;20458;-78
2022/04/09 06:23:59;;;;;;;7.63;1.30;;;;;;;3.14;74.10;100905.44;4979411;28;20034;-78
2022/04/09 06:26:24;;;;;;;8.83;1.80;;;;;;;3.29;74.17;100908.97;4981259;28;20034;-78
2022/04/09 06:28:50;;;;;;;7.53;1.47;;;;;;;3.45;74.24;100923.63;4979999;28;20039;-78
2022/04/09 06:31:15;;;;;;;8.47;1.43;;;;;;;3.70;73.99;100925.44;4981595;28;20474;-78
2022/04/09 06:33:41;;;;;;;11.80;1.33;;;;;;;4.01;74.08;100935.84;4983304;28;20035;-78
2022/04/09 06:36:06;;;;;;;8.25;1.42;;;;;;;4.26;73.35;100947.06;4986788;28;20023;-78
2022/04/09 06:38:33;;;;;;;8.65;1.50;;;;;;;4.45;73.25;100958.25;4981211;28;20165;-78
2022/04/09 06:40:58;;;;;;;6.28;1.58;;;;;;;4.49;72.90;100948.81;4985957;28;20027;-78
2022/04/09 06:43:24;;;;;;;9.30;1.70;;;;;;;4.49;73.18;100964.25;4981347;28;20026;-78
2022/04/09 06:45:49;;;;;;;10.05;1.50;;;;;;;4.33;73.59;100956.53;4980609;28;20058;-79
2022/04/09 06:48:14;;;;;;;5.45;1.33;;;;;;;4.17;72.76;100954.75;4982698;28;20203;-78
2022/04/09 06:50:39;;;;;;;3.83;1.40;;;;;;;4.00;73.97;100986.47;4983340;28;20030;-79
2022/04/09 06:53:05;;;;;;;7.03;1.45;;;;;;;3.84;75.50;100984.69;4981325;28;20046;-78
2022/04/09 06:55:30;;;;;;;5.45;1.30;;;;;;;3.75;76.39;100994.09;4976686;28;20082;-79
2022/04/09 06:58:02;;;;;;;5.60;1.35;;;;;;;3.70;76.15;100993.22;4982180;28;20022;-78
2022/04/09 07:00:27;;;;;;;;;;;;;;;3.67;75.35;101008.63;4980266;28;20031;-78
2022/04/09 07:02:53;;;;;;;9.10;1.70;;;;;;;3.59;77.55;101011.16;4984251;28;20373;-78
2022/04/09 07:05:18;;;;;;;5.10;1.20;;;;;;;3.55;76.94;101006.00;4982264;28;20026;-78
2022/04/09 07:07:48;;;;;;;6.90;1.40;;;;;;;3.56;76.56;101021.41;4982232;28;20105;-79
2022/04/09 07:10:13;;;;;;;5.03;1.23;;;;;;;3.44;76.71;101031.63;4960097;28;20019;-79
2022/04/09 07:12:39;;;;;;;3.97;1.27;;;;;;;3.36;75.38;101031.59;4979209;28;20034;-78
2022/04/09 07:15:05;;;;;;;5.50;1.53;;;;;;;3.26;77.20;101009.22;4977284;28;20033;-78
2022/04/09 07:17:31;;;;;;;5.50;1.07;;;;;;;3.21;78.14;101009.19;4980250;28;20035;-78
2022/04/09 07:20:01;;;;;;;3.57;1.10;;;;;;;3.24;78.51;101004.06;4979297;28;20081;-78
2022/04/09 07:22:27;;;;;;;4.70;1.07;;;;;;;3.31;78.22;100994.69;4983614;28;20022;-78
2022/04/09 07:24:53;;;;;;;5.70;0.95;;;;;;;3.35;78.22;101009.28;4960666;28;20111;-78
2022/04/09 07:27:20;;;;;;;2.60;0.80;;;;;;;3.39;78.39;101008.47;4978049;28;20032;-79
2022/04/09 07:29:45;;;;;;;3.93;1.00;;;;;;;3.46;78.57;101014.50;4975712;28;20112;-78
2022/04/09 07:32:10;;;;;;;3.10;1.10;;;;;;;3.56;78.81;101015.44;4978781;28;20155;-78
2022/04/09 07:34:36;;;;;;;4.60;1.10;;;;;;;3.68;78.12;101019.75;4978974;28;20037;-77
2022/04/09 07:37:01;;;;;;;4.00;1.20;;;;;;;3.79;78.90;101026.69;4980644;28;20493;-78
2022/04/09 07:39:26;;;;;;;3.93;1.73;;;;;;;3.89;78.88;101025.03;4983672;28;20030;-77
2022/04/09 07:41:52;;;;;;;6.40;1.65;;;;;;;3.99;78.88;101033.66;4987294;28;20030;-77
2022/04/09 07:44:17;;;;;;;7.30;1.50;;;;;;;4.03;78.68;101025.09;4986277;28;20054;-77
2022/04/09 07:46:42;;;;;;;6.35;1.45;;;;;;;4.10;79.57;101023.41;4986697;28;20023;-78
2022/04/09 07:49:07;;;;;;;5.88;1.60;;;;;;;4.22;79.79;101028.59;4987103;28;20362;-78
2022/04/09 07:51:33;;;;;;;5.10;1.67;;;;;;;4.33;79.02;101028.63;4985810;28;20382;-79
2022/04/09 07:53:58;;;;;;;7.65;1.88;;;;;;;4.45;78.63;101029.50;4983652;28;20065;-78
2022/04/09 07:56:23;;;;;;;4.50;1.67;;;;;;;4.56;78.98;101027.84;4983841;28;20033;-78
2022/04/09 07:58:49;;;;;;;5.32;1.70;;;;;;;4.66;79.30;101037.31;4989332;28;20748;-77
2022/04/09 08:01:14;;;;;;;5.88;1.80;;;;;;;4.70;78.52;101036.47;4987913;28;20129;-77
2022/04/09 08:03:39;;;;;;;9.25;1.60;;;;;;;4.74;77.50;101044.19;4985970;28;20474;-77
2022/04/09 08:06:05;;;;;;;4.35;1.75;;;;;;;4.77;78.20;101046.78;4985078;28;20038;-78
2022/04/09 08:08:31;;;;;;;6.05;1.67;;;;;;;4.84;78.59;101043.34;4985067;28;20076;-78
2022/04/09 08:10:57;;;;;;;5.22;1.50;;;;;;;4.91;77.50;101050.25;4984560;28;20022;-78
2022/04/09 08:13:22;;;;;;;4.82;1.70;;;;;;;4.97;76.94;101057.13;4985915;28;20508;-77
2022/04/09 08:15:47;;;;;;;5.43;1.60;;;;;;;5.04;76.88;101055.41;4986552;28;20034;-77
2022/04/09 08:18:13;;;;;;;4.32;1.60;;;;;;;5.11;76.12;101062.28;4987317;28;20073;-77
2022/04/09 08:20:39;;;;;;;6.18;1.58;;;;;;;5.16;75.73;101063.13;4986109;28;20512;-77
2022/04/09 08:23:04;;;;;;;9.27;2.53;;;;;;;5.19;75.49;101060.56;4988047;28;20065;-77
2022/04/09 08:25:30;;;;;;;9.00;2.00;;;;;;;5.28;76.69;101058.00;4986069;28;20057;-77
2022/04/09 08:27:55;;;;;;;5.30;1.70;;;;;;;5.39;76.24;101051.97;4987665;28;20045;-77
2022/04/09 08:30:22;;;;;;;8.02;1.90;;;;;;;5.51;75.46;101054.50;4984843;28;20635;-78
2022/04/09 08:32:49;;;;;;;7.47;1.70;;;;;;;5.67;75.82;101049.31;4984569;28;20034;-78
2022/04/09 08:35:15;;;;;;;6.90;1.98;;;;;;;5.84;76.40;101057.03;4969074;28;20053;-78
2022/04/09 08:37:41;;;;;;;7.32;1.70;;;;;;;6.02;77.04;101056.16;4986038;28;20475;-78
2022/04/09 08:40:18;;;;;;;8.10;2.10;;;;;;;6.17;76.29;101069.00;4969081;28;20026;-77
2022/04/09 08:42:44;;;;;;;6.55;2.00;;;;;;;6.26;75.55;101073.28;4985394;28;20034;-78
2022/04/09 08:45:09;;;;;;;4.97;1.08;;;;;;;6.17;72.90;101130.16;4986586;28;20040;-78
2022/04/09 08:47:35;;;;;;;3.25;0.80;;;;;;;5.69;71.71;101112.13;4987649;28;20065;-78
2022/04/09 08:50:02;;;;;;;1.50;0.75;;;;;;;5.22;73.61;101101.84;4984435;28;20027;-78
2022/04/09 08:52:28;;;;;;;1.45;0.60;;;;;;;4.97;73.46;101091.47;4987193;28;20034;-77
2022/04/09 08:54:54;;;;;;;4.13;0.73;;;;;;;4.91;72.96;101091.50;4987216;28;20049;-78
2022/04/09 08:57:20;;;;;;;2.80;0.65;;;;;;;4.86;73.54;101090.59;4987083;28;20068;-78
2022/04/09 08:59:45;;;;;;;2.42;0.73;;;;;;;4.80;74.37;101104.34;4984456;28;20889;-78
2022/04/09 09:02:10;;;;;;;2.00;0.70;;;;;;;4.77;75.09;101106.91;4984786;28;20046;-78
2022/04/09 09:04:36;;;;;;;4.10;0.98;;;;;;;4.75;73.38;101124.09;4986768;28;20029;-79
2022/04/09 09:07:21;;;;;;;6.75;1.17;;;;;;;4.75;72.78;101120.66;4984336;28;20117;-79
2022/04/09 09:09:53;;;;;;;3.55;0.93;;;;;;;4.78;72.49;101118.94;4985917;28;20482;-78
2022/04/09 09:12:29;;;;;;;4.07;1.23;;;;;;;4.84;72.08;101120.69;4984963;28;20026;-78
2022/04/09 09:14:55;;;;;;;3.20;0.90;;;;;;;4.91;71.56;101124.13;4984995;28;20046;-79
2022/04/09 09:17:28;;;;;;;2.33;0.98;;;;;;;5.01;71.72;101113.00;4983284;28;20392;-78
2022/04/09 09:19:54;;;;;;;3.80;1.10;;;;;;;5.08;71.05;101116.44;4982375;28;20492;-78
2022/04/09 09:22:19;;;;;;;2.55;0.80;;;;;;;5.21;70.76;101114.75;4984129;28;20030;-78
2022/04/09 09:25:05;;;;;;;1.95;0.73;;;;;;;5.40;70.39;101125.91;4983045;28;20030;-79
2022/04/09 09:27:30;;;;;;;1.38;0.70;;;;;;;5.60;69.97;101139.69;4982552;28;20698;-79
2022/04/09 09:29:56;;;;;;;2.92;1.00;;;;;;;5.82;68.03;101139.66;4985816;28;20560;-79
2022/04/09 09:32:26;;;;;;;2.63;1.10;;;;;;;5.86;67.33;101154.28;4984488;28;20041;-79
2022/04/09 09:34:56;;;;;;;4.00;0.73;;;;;;;5.85;65.28;101173.22;4984941;28;20038;-78
2022/04/09 09:37:24;;;;;;;2.58;0.60;;;;;;;5.73;66.85;101170.66;4982127;28;20034;-78
2022/04/09 09:39:50;;;;;;;2.65;0.70;;;;;;;5.54;65.91;101170.66;4983805;28;20041;-78
2022/04/09 09:42:20;;;;;;;4.13;0.60;;;;;;;5.36;65.72;101155.16;4982532;28;20042;-78
2022/04/09 09:44:45;;;;;;;1.70;0.50;;;;;;;5.18;65.05;101156.84;4982676;28;20026;-77
2022/04/09 09:47:29;;;;;;;0.45;0.30;;;;;;;5.00;66.15;101152.53;4966078;28;20037;-78
2022/04/09 09:49:56;;;;;;;3.78;0.52;;;;;;;4.92;66.73;101157.66;4964205;28;20452;-78
2022/04/09 09:52:32;;;;;;;4.93;0.90;;;;;;;4.88;68.14;101153.34;4984647;28;20118;-77
2022/04/09 09:55:13;;;;;;;1.38;0.50;;;;;;;4.93;67.42;101151.66;4965957;28;20483;-78
2022/04/09 09:57:38;;;;;;;2.47;0.52;;;;;;;5.00;68.49;101148.22;4983444;28;20257;-78
2022/04/09 10:00:07;;;;;;;1.08;0.60;;;;;;;5.11;67.41;101149.97;4966252;28;20050;-78
2022/04/09 10:02:33;;;;;;;1.30;0.47;;;;;;;5.18;67.13;101136.22;4982485;28;20225;-80
2022/04/09 10:04:58;;;;;;;2.67;0.70;;;;;;;5.32;68.72;101146.56;4980888;28;20038;-78
2022/04/09 10:07:25;;;;;;;1.35;0.70;;;;;;;5.45;67.54;101150.00;4981463;28;20042;-81
2022/04/09 10:09:50;;;;;;;2.85;0.85;;;;;;;5.59;64.89;101153.44;4983440;28;20383;-78
2022/04/09 10:12:23;;;;;;;3.70;1.00;;;;;;;5.68;65.70;101160.34;4983345;28;20035;-78
2022/04/09 10:14:53;;;;;;;2.40;0.85;;;;;;;5.78;66.72;101137.97;4983294;28;20109;-78
2022/04/09 10:17:19;;;;;;;3.70;1.10;;;;;;;5.93;65.87;101147.38;4983459;28;20085;-79
2022/04/09 10:19:52;;;;;;;5.88;2.00;;;;;;;6.11;67.09;101136.22;4980194;28;20104;-79
2022/04/09 10:22:18;;;;;;;6.30;1.42;;;;;;;6.32;66.68;101134.44;4980249;28;20129;-80
2022/04/09 10:24:43;;;;;;;6.00;1.60;;;;;;;6.49;66.27;101127.44;4982812;28;20030;-79
2022/04/09 10:27:33;;;;;;;5.78;1.50;;;;;;;6.72;67.86;101123.91;4981527;28;20038;-78
2022/04/09 10:29:59;;;;;;;6.97;1.60;;;;;;;6.92;62.90;101139.31;4984251;28;20077;-79
2022/04/09 10:32:39;;;;;;;4.03;1.40;;;;;;;7.18;63.25;101137.41;4987448;28;20489;-80
2022/04/09 10:35:21;;;;;;;3.05;1.70;;;;;;;7.37;64.14;101122.63;4969995;28;20038;-80
2022/04/09 10:38:14;;;;;;;3.75;1.35;;;;;;;7.49;62.23;101142.38;4983106;28;20117;-80
2022/04/09 10:40:42;;;;;;;6.13;1.55;;;;;;;7.46;60.18;101143.25;4986643;28;20390;-79
2022/04/09 10:43:08;;;;;;;3.20;1.30;;;;;;;7.55;59.95;101143.19;4984100;28;20031;-80
2022/04/09 10:46:02;;;;;;;3.78;1.30;;;;;;;7.70;59.23;101142.19;4984692;28;20040;-79
2022/04/09 10:48:32;;;;;;;8.90;1.30;;;;;;;7.80;56.58;101147.28;4986218;28;20544;-79
2022/04/09 10:51:08;;;;;;;4.93;1.10;;;;;;;7.95;57.75;101130.72;4985576;28;20038;-79
2022/04/09 10:53:51;;;;;;;5.47;1.20;;;;;;;8.15;56.62;101164.22;4985490;28;20432;-79
2022/04/09 10:56:32;;;;;;;2.22;0.95;;;;;;;8.12;54.34;101141.78;4988769;28;20327;-80
2022/04/09 10:58:59;;;;;;;1.58;0.95;;;;;;;8.08;53.00;101150.47;4985995;28;20035;-80
2022/04/09 11:01:43;;;;;;;3.78;0.93;;;;;;;8.08;53.87;101147.00;4988505;28;20037;-80
2022/04/09 11:04:27;;;;;;;5.13;1.02;;;;;;;8.11;57.55;101141.81;4985233;28;20037;-80
2022/04/09 11:07:14;;;;;;;3.00;0.88;;;;;;;8.25;53.82;101165.00;4984365;28;20057;-81
2022/04/09 11:09:50;;;;;;;2.08;0.90;;;;;;;8.16;49.22;101150.41;4987498;28;20381;-77
2022/04/09 11:12:22;;;;;;;3.83;0.77;;;;;;;8.07;49.66;101160.84;4985162;28;20113;-79
2022/04/09 11:14:50;;;;;;;5.55;0.82;;;;;;;8.07;47.35;101160.84;4985151;28;20053;-79
2022/04/09 11:17:22;;;;;;;2.88;0.90;;;;;;;8.11;46.64;101167.72;4985697;28;20070;-79
2022/04/09 11:19:48;;;;;;;4.18;1.65;;;;;;;8.09;48.66;101140.97;4987323;28;20078;-78
2022/04/09 11:22:13;;;;;;;3.15;0.90;;;;;;;8.13;49.13;101153.03;4984890;28;20187;-78
2022/04/09 11:24:39;;;;;;;3.50;1.08;;;;;;;8.25;46.99;101149.44;4984691;28;20030;-78
2022/04/09 11:27:05;;;;;;;4.05;0.90;;;;;;;8.30;47.48;101168.38;4980864;28;20027;-78
2022/04/09 11:29:35;;;;;;;3.55;0.90;;;;;;;8.38;47.77;101161.38;4985627;28;20531;-78
2022/04/09 11:32:01;;;;;;;2.15;0.60;;;;;;;8.47;46.56;101165.59;4983067;28;20031;-78
2022/04/09 11:34:26;;;;;;;2.97;0.93;;;;;;;8.52;47.22;101163.84;4985970;28;20042;-78